Flight Track Log - Related Links

Times and Time Zones

All times are in EDT time to prevent confusion due to time zone crossing. See the KAP29 flight status page for this flight to view local times or setup timezone preferences in your user account.

Time Position Orientation Groundspeed Altitude Reporting Facility
EDT Latitude Longitude Course Direction KTS MPH feet Rate Location/Type
Sun 07:16:21 PM 42.3833 -71.0000 340° North 99 114 400  Level KA90
Sun 07:17:28 PM 42.4167 -71.0167 340° North 129 148 1,300 843 Climbing KA90
Sun 07:18:22 PM 42.4500 -71.0500 324° Northwest 137 158 2,100 895 Climbing KA90
Sun 07:19:22 PM 42.4833 -71.0667 340° North 138 159 3,000 950 Climbing KA90
Sun 07:20:22 PM 42.5167 -71.1000 324° Northwest 138 159 4,000 1,000 Climbing KA90
Sun 07:21:22 PM 42.5500 -71.1167 340° North 130 150 5,000 800 Climbing KA90
Sun 07:22:22 PM 42.5667 -71.1500 304° West 135 155 5,600 600 Climbing KA90
Sun 07:23:22 PM 42.6000 -71.1667 340° North 134 154 6,200 545 Climbing KA90
Sun 07:24:23 PM 42.6333 -71.2000 324° Northwest 123 142 6,700 545 Climbing KA90
Sun 07:25:23 PM 42.6667 -71.2167 340° North 116 133 7,300 550 Climbing KA90
Sun 07:26:23 PM 42.6833 -71.2333 324° Northwest 112 129 7,800 384 Climbing KA90
Sun 07:27:28 PM 42.7167 -71.2500 340° North 122 140 8,100 100 Climbing KA90
Sun 07:28:23 PM 42.7500 -71.2833 324° Northwest 149 171 8,000 -52 Descending KA90
Sun 07:29:23 PM 42.8000 -71.3167 334° Northwest 155 178 8,000  Level KA90
Sun 07:30:23 PM 42.8167 -71.3500 304° West 150 173 8,000  Level KA90
Sun 07:31:23 PM 42.8500 -71.4000 312° West 150 173 8,000  Level KA90
Sun 07:32:17 PM 42.8667 -71.4500 294° West 152 175 8,000  Level KA90
Sun 07:33:23 PM 42.8833 -71.5000 294° West 154 177 8,000  Level KA90
Sun 07:34:17 PM 42.9000 -71.5500 294° West 151 174 8,000  Level KA90
Sun 07:35:17 PM 42.9167 -71.6000 294° West 136 157 8,000  Level KA90
Sun 07:36:20 PM 42.9353 -71.6433 300° West 158 182 8,000  Level Boston Center
Sun 07:37:32 PM 42.9647 -71.6939 309° West 153 176 8,000  Level Boston Center
Sun 07:38:32 PM 42.9881 -71.7333 309° West 148 170 8,000  Level Boston Center
Sun 07:39:32 PM 43.0133 -71.7728 311° West 148 170 8,000  Level Boston Center
Sun 07:40:44 PM 43.0364 -71.8153 307° West 148 170 8,000  Level Boston Center
Sun 07:41:44 PM 43.0658 -71.8633 310° West 148 170 8,000  Level Boston Center
Sun 07:42:44 PM 43.0869 -71.9000 308° West 143 165 8,000  Level Boston Center
Sun 07:43:44 PM 43.1142 -71.9453 309° West 143 165 8,000  Level Boston Center
Sun 07:44:44 PM 43.1372 -71.9847 309° West 143 165 8,000  Level Boston Center
Sun 07:45:44 PM 43.1625 -72.0303 307° West 148 170 8,000  Level Boston Center
Sun 07:46:44 PM 43.1856 -72.0669 311° West 148 170 8,000  Level Boston Center
Sun 07:47:44 PM 43.2128 -72.1153 308° West 148 170 8,000  Level Boston Center
Sun 07:48:44 PM 43.2336 -72.1522 308° West 143 165 8,000  Level Boston Center
Sun 07:49:44 PM 43.2608 -72.1978 309° West 143 165 8,000  Level Boston Center
Sun 07:50:44 PM 43.2797 -72.2319 307° West 143 165 8,000  Level Boston Center
Sun 07:51:44 PM 43.3089 -72.2831 308° West 143 165 8,000  Level Boston Center
Sun 07:52:44 PM 43.3339 -72.3258 309° West 143 165 8,000  Level Boston Center
Sun 07:53:44 PM 43.3569 -72.3658 308° West 143 165 8,000  Level Boston Center
Sun 07:54:44 PM 43.3819 -72.4086 309° West 143 165 8,000  Level Boston Center
Sun 07:55:44 PM 43.4069 -72.4517 309° West 143 165 8,000  Level Boston Center
Sun 07:56:44 PM 43.4300 -72.4944 307° West 143 165 8,000  Level Boston Center
Sun 07:57:44 PM 43.4550 -72.5344 311° West 143 165 8,000  Level Boston Center
Sun 07:58:44 PM 43.4778 -72.5775 306° West 143 165 8,000  Level Boston Center
Sun 07:59:44 PM 43.5028 -72.6206 309° West 143 165 8,000  Level Boston Center
Sun 08:00:44 PM 43.5278 -72.6633 309° West 143 165 8,000  Level Boston Center
Sun 08:01:44 PM 43.5525 -72.7094 307° West 148 170 8,000  Level Boston Center
Sun 08:02:44 PM 43.5775 -72.7525 309° West 148 170 8,000  Level Boston Center
Sun 08:03:44 PM 43.6022 -72.7956 308° West 148 170 8,000  Level Boston Center
Sun 08:04:44 PM 43.6250 -72.8389 306° West 148 170 8,000  Level Boston Center
Sun 08:05:44 PM 43.6519 -72.8819 311° West 148 170 8,000 50 Level Boston Center
Sun 08:06:44 PM 43.6747 -72.9253 306° West 148 170 8,100 50 Climbing Boston Center
Sun 08:07:44 PM 43.6956 -72.9569 312° West 148 170 8,100  Level Boston Center
Sun 08:08:44 PM 43.7222 -73.0061 307° West 148 170 8,100  Level Boston Center
Sun 08:09:44 PM 43.7450 -73.0494 306° West 148 170 8,100  Level Boston Center
Sun 08:10:44 PM 43.7697 -73.0897 310° West 148 170 8,100  Level Boston Center
Sun 08:11:44 PM 43.7925 -73.1333 306° West 148 170 8,100  Level Boston Center
Sun 08:12:44 PM 43.8172 -73.1767 308° West 148 170 8,100  Level Boston Center
Sun 08:13:44 PM 43.8419 -73.2172 310° West 148 170 8,100  Level Boston Center
Sun 08:14:44 PM 43.8667 -73.2608 308° West 148 170 8,100  Level Boston Center
Sun 08:15:44 PM 43.8914 -73.3044 308° West 148 170 8,100  Level Boston Center
Sun 08:16:44 PM 43.9139 -73.3478 306° West 148 170 8,100  Level Boston Center
Sun 08:17:44 PM 43.9386 -73.3917 308° West 143 165 8,100  Level Boston Center
Sun 08:18:44 PM 43.9633 -73.4353 308° West 143 165 8,100  Level Boston Center
Sun 08:19:44 PM 43.9878 -73.4789 308° West 143 165 8,100  Level Boston Center
Sun 08:20:44 PM 44.0125 -73.5256 306° West 143 165 8,100  Level Boston Center
Sun 08:21:44 PM 44.0350 -73.5719 304° West 143 165 8,100 -100 Level Boston Center
Sun 08:22:44 PM 44.0614 -73.6189 308° West 148 170 7,900 -200 Descending Boston Center
Sun 08:23:44 PM 44.0881 -73.6656 309° West 148 170 7,700 -250 Descending Boston Center
Sun 08:24:44 PM 44.1167 -73.7153 309° West 153 176 7,400 -300 Descending Boston Center
Sun 08:25:44 PM 44.1433 -73.7650 307° West 153 176 7,100 -300 Descending Boston Center
Sun 08:26:44 PM 44.1719 -73.8178 307° West 158 182 6,800 -350 Descending Boston Center
Sun 08:27:44 PM 44.2003 -73.8678 308° West 163 188 6,400 -350 Descending Boston Center
Sun 08:28:44 PM 44.2289 -73.9233 306° West 163 188 6,100 -300 Descending Boston Center

Login

Don't have an account? Register now (free) for customized features, flight alerts, and more!